Time;durP1;ratioP1;P1;durP2;ratioP2;P2;SDS_P1;SDS_P2;PMS_P1;PMS_P2;Temp;Humidity;BMP_temperature;BMP_pressure;BME280_temperature;BME280_humidity;BME280_pressure;Samples;Min_cycle;Max_cycle;Signal;HPM_P1;HPM_P2
2023/03/03 00:01:05;;;;;;;32.80;15.75;;;4.00;92.30;;;;;;5072806;28;20209;-70
2023/03/03 00:03:32;;;;;;;26.60;16.35;;;4.00;92.30;;;;;;5061469;28;20259;-69
2023/03/03 00:05:59;;;;;;;31.90;16.00;;;4.00;92.30;;;;;;5069334;28;20649;-70
2023/03/03 00:08:27;;;;;;;28.70;15.13;;;4.00;92.20;;;;;;5063042;28;20643;-69
2023/03/03 00:10:54;;;;;;;33.13;16.42;;;3.90;92.30;;;;;;5053289;28;20252;-69
2023/03/03 00:13:24;;;;;;;28.55;17.95;;;4.00;92.40;;;;;;5059778;28;20265;-69
2023/03/03 00:15:53;;;;;;;29.70;14.95;;;4.00;92.50;;;;;;5053013;28;20217;-70
2023/03/03 00:18:29;;;;;;;30.90;16.23;;;4.00;92.40;;;;;;5053016;28;20602;-70
2023/03/03 00:21:00;;;;;;;23.52;15.05;;;3.90;92.70;;;;;;5052920;28;20285;-69
2023/03/03 00:23:31;;;;;;;35.65;17.38;;;3.90;92.40;;;;;;5059335;28;20182;-70
2023/03/03 00:26:00;;;;;;;31.02;16.85;;;3.90;92.50;;;;;;5071221;28;20551;-69
2023/03/03 00:28:31;;;;;;;26.65;14.13;;;4.00;92.60;;;;;;5064436;28;20225;-69
2023/03/03 00:31:00;;;;;;;29.65;17.55;;;4.00;92.50;;;;;;5052045;28;20593;-69
2023/03/03 00:33:33;;;;;;;28.27;15.18;;;4.00;92.50;;;;;;5052115;28;20186;-69
2023/03/03 00:36:21;;;;;;;28.42;15.65;;;4.00;92.50;;;;;;5070556;28;20185;-70
2023/03/03 00:38:49;;;;;;;24.27;13.55;;;4.00;92.50;;;;;;5071509;28;20197;-69
2023/03/03 00:41:23;;;;;;;26.40;15.40;;;4.00;92.50;;;;;;5072206;28;20201;-69
2023/03/03 00:43:52;;;;;;;32.47;14.82;;;4.00;92.40;;;;;;5063758;28;20716;-69
2023/03/03 00:46:21;;;;;;;26.10;14.70;;;4.00;92.40;;;;;;5052367;28;20214;-69
2023/03/03 00:48:50;;;;;;;25.42;15.25;;;4.00;92.70;;;;;;5059003;28;20190;-69
2023/03/03 00:51:27;;;;;;;30.30;15.80;;;4.00;92.70;;;;;;5072245;28;20194;-70
2023/03/03 00:53:55;;;;;;;25.05;14.48;;;4.00;92.70;;;;;;5071351;28;20248;-69
2023/03/03 00:56:22;;;;;;;27.92;15.82;;;4.00;92.70;;;;;;5072259;28;20272;-69
2023/03/03 00:58:51;;;;;;;29.55;15.98;;;4.00;92.70;;;;;;5072315;28;20297;-69
2023/03/03 01:01:19;;;;;;;29.50;16.73;;;4.00;92.70;;;;;;5071964;28;20230;-69
2023/03/03 01:03:46;;;;;;;34.55;17.20;;;4.00;92.50;;;;;;5065160;28;20186;-69
2023/03/03 01:06:14;;;;;;;26.55;17.15;;;3.90;92.40;;;;;;5052178;28;20361;-69
2023/03/03 01:08:41;;;;;;;30.05;16.40;;;3.90;92.70;;;;;;5056264;28;20213;-69
2023/03/03 01:11:15;;;;;;;25.13;15.13;;;3.90;92.70;;;;;;5071942;28;20200;-68
2023/03/03 01:13:43;;;;;;;25.75;15.45;;;3.90;92.70;;;;;;5070100;28;20186;-68
2023/03/03 01:16:12;;;;;;;29.83;17.38;;;3.90;92.90;;;;;;5071770;28;20240;-68
2023/03/03 01:18:40;;;;;;;29.10;15.50;;;3.90;92.90;;;;;;5066459;28;20252;-68
2023/03/03 01:21:07;;;;;;;27.13;15.95;;;3.90;92.80;;;;;;5051450;28;20202;-68
2023/03/03 01:23:35;;;;;;;29.05;15.73;;;3.90;93.00;;;;;;5051570;28;20649;-68
2023/03/03 01:26:03;;;;;;;32.47;16.00;;;3.80;92.70;;;;;;5051712;28;20232;-68
2023/03/03 01:28:30;;;;;;;32.78;16.10;;;3.80;92.90;;;;;;5052976;28;20247;-68
2023/03/03 01:31:01;;;;;;;28.52;17.30;;;3.80;93.30;;;;;;5071157;28;20194;-68
2023/03/03 01:33:30;;;;;;;27.35;14.57;;;3.80;93.60;;;;;;5071786;28;20622;-69
2023/03/03 01:35:57;;;;;;;28.73;16.13;;;3.80;93.60;;;;;;5071342;28;20691;-69
2023/03/03 01:38:24;;;;;;;26.98;16.60;;;3.80;93.60;;;;;;5068748;28;20229;-70
2023/03/03 01:40:57;;;;;;;23.88;16.23;;;3.80;93.40;;;;;;5054008;28;20216;-69
2023/03/03 01:43:26;;;;;;;26.92;16.30;;;3.80;93.30;;;;;;5055026;28;20186;-69
2023/03/03 01:46:41;;;;;;;22.60;14.07;;;3.90;93.40;;;;;;5055504;28;20284;-68
2023/03/03 01:49:16;;;;;;;23.50;15.23;;;3.90;93.40;;;;;;5055027;28;20182;-69
2023/03/03 01:51:48;;;;;;;27.38;14.35;;;4.00;93.30;;;;;;5055520;28;20198;-68
2023/03/03 01:54:20;;;;;;;26.15;15.43;;;4.00;93.30;;;;;;5073823;28;20300;-68
2023/03/03 01:56:52;;;;;;;26.33;15.05;;;4.00;93.40;;;;;;5075669;28;20193;-68
2023/03/03 01:59:23;;;;;;;24.40;14.10;;;3.90;93.20;;;;;;5075470;28;20201;-70
2023/03/03 02:01:50;;;;;;;26.38;14.25;;;4.00;93.20;;;;;;5075223;28;20218;-70
2023/03/03 02:04:20;;;;;;;30.35;15.10;;;4.00;93.50;;;;;;5055605;28;20248;-70
2023/03/03 02:06:53;;;;;;;30.20;14.60;;;4.00;93.60;;;;;;5055151;28;20201;-69
2023/03/03 02:09:26;;;;;;;19.73;13.05;;;4.00;93.50;;;;;;5055218;28;20277;-70
2023/03/03 02:11:58;;;;;;;25.92;15.48;;;4.00;93.30;;;;;;5055425;28;20225;-69
2023/03/03 02:14:25;;;;;;;24.95;14.05;;;4.00;93.30;;;;;;5073115;28;20781;-70
2023/03/03 02:16:54;;;;;;;22.98;14.35;;;4.00;93.30;;;;;;5075015;28;20193;-70
2023/03/03 02:19:28;;;;;;;28.63;17.45;;;4.00;93.30;;;;;;5074107;28;20243;-70
2023/03/03 02:21:55;;;;;;;23.15;14.88;;;4.00;93.10;;;;;;5075355;28;20589;-69
2023/03/03 02:24:27;;;;;;;28.52;14.35;;;4.00;93.20;;;;;;5075131;28;20272;-70
2023/03/03 02:26:55;;;;;;;24.38;15.05;;;4.00;93.30;;;;;;5074870;28;20655;-69
2023/03/03 02:29:22;;;;;;;30.75;15.73;;;4.00;93.30;;;;;;5068261;28;20191;-70
2023/03/03 02:31:49;;;;;;;24.83;15.13;;;4.00;93.30;;;;;;5054446;28;20240;-69
2023/03/03 02:34:16;;;;;;;25.88;14.95;;;4.00;93.30;;;;;;5066129;28;20214;-70
2023/03/03 02:36:44;;;;;;;26.45;14.02;;;4.00;93.30;;;;;;5054443;28;20281;-69
2023/03/03 02:39:16;;;;;;;28.83;14.32;;;4.00;93.20;;;;;;5054573;28;20616;-69
2023/03/03 02:41:48;;;;;;;32.97;14.60;;;4.00;93.20;;;;;;5054746;28;20179;-69
2023/03/03 02:44:18;;;;;;;30.58;16.50;;;4.00;93.30;;;;;;5062265;28;20185;-68
2023/03/03 02:46:49;;;;;;;25.80;13.85;;;4.10;93.20;;;;;;5074717;28;20302;-69
2023/03/03 02:49:19;;;;;;;23.10;14.85;;;4.00;93.20;;;;;;5064783;28;20222;-69
2023/03/03 02:51:47;;;;;;;23.15;12.85;;;4.00;93.20;;;;;;5063587;28;20182;-69
2023/03/03 02:54:16;;;;;;;24.25;14.45;;;4.00;93.20;;;;;;5073459;28;20602;-69
2023/03/03 02:56:43;;;;;;;28.98;16.48;;;4.00;93.40;;;;;;5074224;28;20219;-69
2023/03/03 02:59:10;;;;;;;24.67;13.90;;;4.00;93.30;;;;;;5066592;28;20721;-68
2023/03/03 03:01:39;;;;;;;22.83;13.77;;;4.10;93.20;;;;;;5054071;28;20309;-69
2023/03/03 03:04:08;;;;;;;28.55;14.98;;;4.00;93.20;;;;;;5060205;28;20194;-70
2023/03/03 03:06:35;;;;;;;23.20;13.73;;;3.90;93.50;;;;;;5074120;28;20224;-69
2023/03/03 03:09:03;;;;;;;27.05;14.77;;;3.90;93.60;;;;;;5067662;28;20252;-69
2023/03/03 03:11:30;;;;;;;24.00;13.05;;;3.90;93.70;;;;;;5053975;28;20233;-69
2023/03/03 03:13:57;;;;;;;26.83;14.70;;;4.00;93.60;;;;;;5055840;28;20278;-69
2023/03/03 03:16:24;;;;;;;27.17;15.80;;;3.90;93.60;;;;;;5072017;28;20214;-69
2023/03/03 03:18:52;;;;;;;26.20;14.75;;;3.90;93.60;;;;;;5069170;28;20225;-70
2023/03/03 03:21:19;;;;;;;24.38;17.50;;;4.00;93.70;;;;;;5053773;28;20277;-69
2023/03/03 03:23:46;;;;;;;33.35;15.55;;;3.90;93.50;;;;;;5053856;28;20187;-68
2023/03/03 03:26:13;;;;;;;28.55;15.43;;;3.90;93.60;;;;;;5053640;28;20186;-69
2023/03/03 03:28:40;;;;;;;26.92;14.48;;;3.90;93.60;;;;;;5053675;28;20232;-69
2023/03/03 03:31:09;;;;;;;24.52;14.50;;;3.90;93.60;;;;;;5053731;28;20636;-69
2023/03/03 03:33:37;;;;;;;21.77;13.68;;;3.90;93.60;;;;;;5053482;28;20622;-69
2023/03/03 03:36:06;;;;;;;29.17;14.68;;;3.90;93.70;;;;;;5055102;28;20214;-69
2023/03/03 03:38:35;;;;;;;28.15;14.88;;;3.90;93.60;;;;;;5073310;28;20221;-69
2023/03/03 03:41:04;;;;;;;25.13;12.05;;;3.90;93.60;;;;;;5072700;28;20627;-70
2023/03/03 03:43:31;;;;;;;21.92;13.68;;;3.90;93.70;;;;;;5073279;28;20221;-69
2023/03/03 03:45:58;;;;;;;25.42;13.75;;;3.90;93.60;;;;;;5067702;28;20198;-70
2023/03/03 03:48:25;;;;;;;29.23;14.00;;;4.00;93.50;;;;;;5053310;28;20298;-69
2023/03/03 03:50:52;;;;;;;25.42;14.48;;;4.00;93.30;;;;;;5052519;28;20548;-70
2023/03/03 03:53:20;;;;;;;24.23;13.15;;;3.90;93.40;;;;;;5062508;28;20218;-69
2023/03/03 03:55:48;;;;;;;24.75;14.48;;;3.90;93.30;;;;;;5052858;28;20680;-69
2023/03/03 03:58:15;;;;;;;25.92;14.38;;;3.90;93.30;;;;;;5052755;28;20194;-69
2023/03/03 04:00:43;;;;;;;25.33;13.35;;;3.90;93.30;;;;;;5052946;28;20209;-69
2023/03/03 04:03:10;;;;;;;21.52;13.82;;;3.90;93.50;;;;;;5052780;28;20389;-69
2023/03/03 04:05:37;;;;;;;27.38;12.98;;;3.90;93.40;;;;;;5054159;28;20534;-69
2023/03/03 04:08:05;;;;;;;30.17;15.23;;;3.90;93.40;;;;;;5072797;28;20243;-69
2023/03/03 04:10:34;;;;;;;21.48;13.20;;;3.90;93.30;;;;;;5052884;28;20194;-69
2023/03/03 04:13:01;;;;;;;26.10;13.30;;;3.90;93.30;;;;;;5053040;28;20221;-69
2023/03/03 04:15:28;;;;;;;22.42;13.98;;;4.00;93.40;;;;;;5052204;28;20317;-69
2023/03/03 04:17:54;;;;;;;24.48;12.80;;;4.00;93.40;;;;;;5051947;28;20187;-69
2023/03/03 04:20:21;;;;;;;23.90;13.00;;;4.00;93.40;;;;;;5068892;28;20193;-69
2023/03/03 04:22:48;;;;;;;20.23;11.95;;;4.00;93.40;;;;;;5072576;28;20194;-69
2023/03/03 04:25:17;;;;;;;23.27;14.30;;;4.00;93.40;;;;;;5070829;28;20243;-68
2023/03/03 04:27:46;;;;;;;24.65;14.60;;;4.00;93.50;;;;;;5072515;28;20714;-68
2023/03/03 04:30:14;;;;;;;23.08;13.80;;;4.00;93.40;;;;;;5071112;28;20178;-69
2023/03/03 04:32:42;;;;;;;23.83;12.88;;;4.00;93.40;;;;;;5072370;28;20225;-69
2023/03/03 04:35:10;;;;;;;23.58;13.07;;;4.00;93.40;;;;;;5060726;28;20214;-69
2023/03/03 04:37:38;;;;;;;27.23;15.27;;;4.00;93.30;;;;;;5052410;28;20273;-69
2023/03/03 04:40:06;;;;;;;22.17;13.82;;;4.00;93.40;;;;;;5063781;28;20292;-69
2023/03/03 04:42:33;;;;;;;22.73;12.65;;;4.00;93.50;;;;;;5072196;28;20189;-69
2023/03/03 04:45:01;;;;;;;23.27;14.10;;;4.00;93.50;;;;;;5070710;28;20249;-69
2023/03/03 04:47:29;;;;;;;22.00;13.60;;;4.00;93.60;;;;;;5071986;28;20690;-69
2023/03/03 04:49:56;;;;;;;24.55;13.63;;;4.00;93.50;;;;;;5061228;28;20277;-69
2023/03/03 04:52:22;;;;;;;20.95;12.43;;;4.00;93.70;;;;;;5052063;28;20199;-69
2023/03/03 04:54:49;;;;;;;23.10;14.30;;;3.90;93.70;;;;;;5051750;28;20613;-69
2023/03/03 04:57:17;;;;;;;23.98;13.32;;;4.00;93.80;;;;;;5052149;28;20281;-69
2023/03/03 04:59:44;;;;;;;23.90;14.50;;;4.00;93.70;;;;;;5058874;28;20268;-69
2023/03/03 05:02:13;;;;;;;22.45;12.93;;;4.00;93.60;;;;;;5071664;28;20232;-69
2023/03/03 05:04:40;;;;;;;23.55;12.88;;;4.00;93.60;;;;;;5071833;28;20243;-69
2023/03/03 05:07:07;;;;;;;20.70;11.75;;;4.00;93.60;;;;;;5071889;28;20235;-69
2023/03/03 05:09:34;;;;;;;27.85;14.68;;;4.00;93.60;;;;;;5065583;28;20641;-69
2023/03/03 05:12:01;;;;;;;20.67;12.82;;;4.00;93.70;;;;;;5052012;28;20269;-69
2023/03/03 05:14:28;;;;;;;24.00;13.63;;;4.00;93.70;;;;;;5055468;28;20243;-69
2023/03/03 05:16:55;;;;;;;24.67;12.80;;;4.00;93.70;;;;;;5071947;28;20233;-70
2023/03/03 05:19:24;;;;;;;24.35;13.73;;;4.00;93.80;;;;;;5071730;28;20545;-69
2023/03/03 05:21:51;;;;;;;25.05;14.48;;;4.00;93.90;;;;;;5072300;28;20189;-70
2023/03/03 05:24:18;;;;;;;23.15;12.50;;;4.00;93.90;;;;;;5070932;28;20270;-69
2023/03/03 05:26:45;;;;;;;27.30;13.27;;;4.00;93.90;;;;;;5071691;28;20193;-68
2023/03/03 05:29:12;;;;;;;25.33;13.77;;;4.00;93.80;;;;;;5068993;28;20308;-68
2023/03/03 05:31:39;;;;;;;26.08;14.02;;;4.00;93.80;;;;;;5051737;28;20194;-68
2023/03/03 05:34:06;;;;;;;22.65;13.52;;;3.90;93.80;;;;;;5052695;28;20259;-68
2023/03/03 05:36:34;;;;;;;21.40;13.13;;;3.90;93.80;;;;;;5071723;28;20253;-68
2023/03/03 05:39:02;;;;;;;23.02;12.27;;;3.90;93.80;;;;;;5070069;28;20277;-69
2023/03/03 05:41:29;;;;;;;21.55;11.85;;;3.90;93.90;;;;;;5050911;28;20282;-69
2023/03/03 05:43:56;;;;;;;19.38;11.82;;;4.00;93.90;;;;;;5052031;28;20190;-68
2023/03/03 05:46:23;;;;;;;23.90;14.30;;;3.90;93.90;;;;;;5051962;28;20198;-69
2023/03/03 05:48:50;;;;;;;24.80;13.75;;;4.00;93.90;;;;;;5051552;28;20282;-68
2023/03/03 05:51:17;;;;;;;26.95;15.50;;;3.90;93.90;;;;;;5051064;28;20237;-69
2023/03/03 05:53:45;;;;;;;24.42;15.88;;;3.90;93.90;;;;;;5051740;28;20271;-71
2023/03/03 05:56:12;;;;;;;25.80;15.98;;;3.90;93.90;;;;;;5068879;28;20304;-68
2023/03/03 05:58:39;;;;;;;25.63;15.40;;;3.90;94.10;;;;;;5071342;28;20193;-68
2023/03/03 06:01:06;;;;;;;21.30;14.80;;;3.90;94.10;;;;;;5071390;28;20185;-68
2023/03/03 06:03:33;;;;;;;27.90;14.98;;;3.90;94.20;;;;;;5071202;28;20272;-68
2023/03/03 06:06:00;;;;;;;29.15;16.02;;;3.90;94.00;;;;;;5058217;28;20178;-68
2023/03/03 06:08:28;;;;;;;25.63;15.75;;;3.90;94.00;;;;;;5069249;28;20221;-69
2023/03/03 06:10:57;;;;;;;27.70;13.75;;;3.90;94.00;;;;;;5068268;28;20571;-69
2023/03/03 06:13:31;;;;;;;28.67;17.65;;;3.90;94.00;;;;;;5071283;28;20190;-69
2023/03/03 06:15:58;;;;;;;40.88;24.90;;;3.80;94.30;;;;;;5056538;28;20222;-69
2023/03/03 06:18:25;;;;;;;45.40;28.50;;;3.80;94.50;;;;;;5051247;28;20611;-69
2023/03/03 06:20:53;;;;;;;59.50;32.08;;;3.80;94.50;;;;;;5059132;28;20190;-70
2023/03/03 06:23:21;;;;;;;34.42;21.38;;;3.90;94.50;;;;;;5051189;28;20602;-69
2023/03/03 06:25:48;;;;;;;20.75;14.20;;;3.90;94.50;;;;;;5051936;28;20575;-69
2023/03/03 06:28:16;;;;;;;25.13;14.02;;;3.90;94.40;;;;;;5055464;28;20281;-69
2023/03/03 06:30:43;;;;;;;22.13;15.27;;;3.90;94.40;;;;;;5062639;28;20261;-68
2023/03/03 06:33:10;;;;;;;25.38;15.40;;;3.90;94.40;;;;;;5068138;28;21317;-68
2023/03/03 06:35:37;;;;;;;25.90;15.75;;;4.00;94.30;;;;;;5052060;28;20474;-69
2023/03/03 06:38:04;;;;;;;30.30;15.00;;;4.00;94.20;;;;;;5052521;28;20700;-69
2023/03/03 06:40:31;;;;;;;24.50;14.93;;;4.00;94.20;;;;;;5053069;28;20210;-68
2023/03/03 06:42:58;;;;;;;23.25;14.80;;;4.00;94.10;;;;;;5052439;28;20222;-68
2023/03/03 06:45:27;;;;;;;24.58;14.82;;;4.00;94.20;;;;;;5052873;28;20277;-70
2023/03/03 06:47:53;;;;;;;25.52;13.93;;;4.00;94.40;;;;;;5049362;28;20286;-68
2023/03/03 06:50:21;;;;;;;27.48;15.45;;;4.10;94.40;;;;;;5053032;28;20273;-69
2023/03/03 06:52:48;;;;;;;24.13;13.98;;;4.10;94.30;;;;;;5053296;28;20194;-69
2023/03/03 06:55:22;;;;;;;22.45;14.70;;;4.10;94.30;;;;;;5053243;28;20222;-69
2023/03/03 06:57:49;;;;;;;24.65;14.60;;;4.10;94.10;;;;;;5053564;28;20260;-68
2023/03/03 07:00:19;;;;;;;27.20;16.08;;;4.10;94.10;;;;;;5048991;28;20279;-70
2023/03/03 07:02:48;;;;;;;25.02;14.98;;;4.20;94.10;;;;;;5051936;28;20226;-69
2023/03/03 07:05:17;;;;;;;25.42;15.13;;;4.20;94.10;;;;;;5048558;28;20193;-69
2023/03/03 07:07:45;;;;;;;27.42;17.20;;;4.20;94.00;;;;;;5052797;28;20672;-68
2023/03/03 07:10:23;;;;;;;28.25;17.38;;;4.20;93.90;;;;;;5050127;28;20226;-69
2023/03/03 07:12:50;;;;;;;28.90;17.90;;;4.30;94.00;;;;;;5049100;28;20729;-68
2023/03/03 07:15:20;;;;;;;24.60;16.38;;;4.30;93.80;;;;;;5052397;28;20232;-68
2023/03/03 07:17:50;;;;;;;34.15;16.80;;;4.30;94.00;;;;;;5050751;28;20218;-69
2023/03/03 07:20:20;;;;;;;28.10;15.45;;;4.30;94.00;;;;;;5052550;28;20290;-68
2023/03/03 07:22:47;;;;;;;31.13;19.42;;;4.50;94.50;;;;;;5052980;28;20285;-69
2023/03/03 07:25:21;;;;;;;33.13;19.58;;;4.60;94.80;;;;;;5053202;28;20174;-69
2023/03/03 07:27:48;;;;;;;31.40;19.80;;;4.80;94.90;;;;;;5052295;28;20236;-71
2023/03/03 07:30:25;;;;;;;30.10;18.52;;;4.90;94.60;;;;;;5051841;28;20186;-69
2023/03/03 07:32:56;;;;;;;22.27;16.05;;;4.90;93.30;;;;;;5048392;28;20192;-69
2023/03/03 07:35:37;;;;;;;23.95;15.40;;;4.80;92.60;;;;;;5055065;28;20248;-69
2023/03/03 07:38:30;;;;;;;29.60;15.40;;;4.80;92.70;;;;;;5047599;28;20197;-69
2023/03/03 07:40:59;;;;;;;24.30;15.73;;;4.80;92.70;;;;;;5055546;28;20272;-68
2023/03/03 07:43:31;;;;;;;25.88;14.80;;;4.80;92.60;;;;;;5052494;28;21498;-69
2023/03/03 07:46:02;;;;;;;24.67;14.20;;;4.80;92.20;;;;;;5052413;28;20277;-69
2023/03/03 07:48:36;;;;;;;26.40;15.88;;;4.80;92.40;;;;;;5053256;28;20178;-69
2023/03/03 07:51:06;;;;;;;25.55;16.30;;;4.80;92.50;;;;;;5054113;28;20194;-68
2023/03/03 07:53:36;;;;;;;25.17;16.70;;;4.80;92.70;;;;;;5051866;28;20281;-69
2023/03/03 07:56:15;;;;;;;26.70;15.38;;;4.80;93.00;;;;;;5052698;28;20220;-68
2023/03/03 07:58:44;;;;;;;25.70;15.90;;;4.80;92.60;;;;;;5051762;28;20266;-69
2023/03/03 08:01:34;;;;;;;32.13;16.77;;;4.90;92.60;;;;;;5052052;28;20268;-68
2023/03/03 08:04:06;;;;;;;24.42;16.50;;;4.90;92.50;;;;;;5048028;28;20234;-68
2023/03/03 08:06:54;;;;;;;24.88;14.82;;;4.90;92.50;;;;;;5051040;28;20186;-68
2023/03/03 08:09:47;;;;;;;25.23;16.60;;;4.90;92.50;;;;;;5045006;28;20189;-69
2023/03/03 08:12:31;;;;;;;24.73;15.68;;;4.90;92.40;;;;;;5053704;28;20376;-68
2023/03/03 08:15:14;;;;;;;25.65;15.90;;;4.90;92.30;;;;;;5052093;28;20186;-69
2023/03/03 08:17:44;;;;;;;27.92;16.30;;;4.90;92.30;;;;;;5050980;28;20230;-69
2023/03/03 08:20:50;;;;;;;26.65;15.25;;;5.00;92.30;;;;;;5048002;28;20226;-68
2023/03/03 08:23:20;;;;;;;25.05;14.25;;;5.00;92.20;;;;;;5048491;28;20190;-68
2023/03/03 08:25:48;;;;;;;25.45;15.27;;;5.00;92.40;;;;;;5051385;28;20281;-70
2023/03/03 08:28:16;;;;;;;23.85;15.25;;;5.10;92.60;;;;;;5047731;28;20329;-68
2023/03/03 08:30:44;;;;;;;23.08;15.32;;;5.10;92.60;;;;;;5047161;28;20244;-68
2023/03/03 08:33:11;;;;;;;25.70;15.43;;;5.10;92.60;;;;;;5040027;28;21513;-69
2023/03/03 08:35:38;;;;;;;22.80;15.10;;;5.20;92.60;;;;;;5048321;28;20316;-69
2023/03/03 08:38:06;;;;;;;20.77;14.38;;;5.20;92.40;;;;;;5050347;28;20677;-69
2023/03/03 08:40:34;;;;;;;23.90;14.88;;;5.20;92.40;;;;;;5050270;28;20195;-68
2023/03/03 08:43:02;;;;;;;26.05;14.77;;;5.20;92.30;;;;;;5051218;28;20222;-69
2023/03/03 08:45:29;;;;;;;24.42;13.88;;;5.30;92.40;;;;;;5050008;28;20185;-69
2023/03/03 08:47:58;;;;;;;22.73;15.60;;;5.30;92.30;;;;;;5049935;28;20190;-69
2023/03/03 08:50:26;;;;;;;27.98;17.75;;;5.30;92.00;;;;;;5051035;28;20222;-69
2023/03/03 08:52:53;;;;;;;31.45;16.45;;;5.30;91.70;;;;;;5048875;28;20190;-71
2023/03/03 08:55:20;;;;;;;25.42;16.42;;;5.30;91.60;;;;;;5049976;28;20248;-69
2023/03/03 08:57:48;;;;;;;26.33;16.85;;;5.40;91.40;;;;;;5045907;28;20548;-68
2023/03/03 09:00:18;;;;;;;22.27;14.70;;;5.30;91.40;;;;;;5050547;28;20728;-68
2023/03/03 09:02:44;;;;;;;26.52;17.08;;;5.30;91.70;;;;;;5051106;28;20250;-69
2023/03/03 09:05:12;;;;;;;26.67;16.83;;;5.30;91.70;;;;;;5049252;28;20277;-69
2023/03/03 09:07:39;;;;;;;24.90;14.52;;;5.30;91.50;;;;;;5050444;28;20189;-69
2023/03/03 09:10:07;;;;;;;25.08;16.98;;;5.30;91.50;;;;;;5050225;28;20240;-68
2023/03/03 09:12:38;;;;;;;26.90;17.50;;;5.30;91.20;;;;;;5050557;28;20273;-70
2023/03/03 09:15:18;;;;;;;32.53;17.20;;;5.30;91.40;;;;;;5045142;28;20611;-69
2023/03/03 09:17:46;;;;;;;24.05;16.17;;;5.30;92.10;;;;;;5049984;28;20296;-69
2023/03/03 09:20:27;;;;;;;26.33;16.75;;;5.40;92.30;;;;;;5048867;28;20218;-68
2023/03/03 09:22:55;;;;;;;24.60;14.85;;;5.40;92.10;;;;;;5050378;28;20221;-69
2023/03/03 09:25:27;;;;;;;31.98;19.05;;;5.50;92.00;;;;;;5053923;28;20182;-69
2023/03/03 09:27:54;;;;;;;31.02;17.45;;;5.50;91.70;;;;;;5054073;28;20228;-69
2023/03/03 09:30:38;;;;;;;34.28;19.52;;;5.50;91.00;;;;;;5050539;28;20226;-69
2023/03/03 09:33:25;;;;;;;36.15;20.63;;;5.60;90.70;;;;;;5047512;28;20193;-69
2023/03/03 09:36:06;;;;;;;40.80;19.65;;;5.60;90.90;;;;;;5052344;28;20632;-70
2023/03/03 09:38:39;;;;;;;33.63;18.80;;;5.60;90.70;;;;;;5050056;28;20221;-68
2023/03/03 09:41:47;;;;;;;35.95;23.70;;;5.70;90.90;;;;;;5045846;28;20603;-69
2023/03/03 09:44:30;;;;;;;36.38;21.50;;;5.80;90.90;;;;;;5051740;28;20218;-68
2023/03/03 09:47:26;;;;;;;42.92;21.73;;;5.80;90.40;;;;;;5047660;28;20205;-69
2023/03/03 09:50:02;;;;;;;32.92;19.40;;;5.90;90.20;;;;;;5049358;28;20305;-69
2023/03/03 09:52:39;;;;;;;36.08;21.40;;;5.90;89.80;;;;;;5050789;28;20691;-69
2023/03/03 09:55:19;;;;;;;35.78;19.60;;;6.00;90.00;;;;;;5051382;28;20221;-68
2023/03/03 09:58:18;;;;;;;31.80;20.70;;;6.00;89.60;;;;;;5050444;28;20680;-69
2023/03/03 10:00:55;;;;;;;36.25;20.10;;;6.10;89.30;;;;;;5048041;28;20269;-68
2023/03/03 10:03:57;;;;;;;31.92;19.30;;;6.20;89.00;;;;;;5053974;28;20260;-69
2023/03/03 10:06:42;;;;;;;31.80;19.20;;;6.20;88.60;;;;;;5047731;28;20213;-69
2023/03/03 10:09:40;;;;;;;35.03;20.85;;;6.30;88.30;;;;;;5054193;28;20273;-69
2023/03/03 10:12:14;;;;;;;37.47;21.60;;;6.40;87.10;;;;;;5050166;28;20186;-71
2023/03/03 10:15:04;;;;;;;40.88;23.75;;;6.40;86.90;;;;;;5051298;28;20194;-69
2023/03/03 10:17:42;;;;;;;35.50;21.65;;;6.40;86.60;;;;;;5044511;28;20284;-68
2023/03/03 10:20:37;;;;;;;37.95;22.90;;;6.50;86.60;;;;;;5053634;28;20201;-69
2023/03/03 10:23:20;;;;;;;38.58;25.00;;;6.50;86.90;;;;;;5053430;28;20186;-69
2023/03/03 10:25:54;;;;;;;40.42;22.40;;;6.60;86.80;;;;;;5053308;28;20659;-70
2023/03/03 10:28:52;;;;;;;39.95;22.35;;;6.60;86.90;;;;;;5055507;28;20198;-69
2023/03/03 10:31:29;;;;;;;39.38;23.70;;;6.70;86.60;;;;;;5049644;28;20737;-69
2023/03/03 10:34:03;;;;;;;36.08;22.83;;;6.80;85.90;;;;;;5053525;28;20294;-69
2023/03/03 10:36:45;;;;;;;43.80;22.35;;;6.80;85.60;;;;;;5049524;28;20217;-69
2023/03/03 10:39:45;;;;;;;34.97;22.33;;;6.90;84.90;;;;;;5053601;28;20244;-68
2023/03/03 10:42:34;;;;;;;37.25;22.15;;;6.90;83.50;;;;;;5038842;28;20910;-69
2023/03/03 10:45:33;;;;;;;39.60;23.33;;;7.00;84.00;;;;;;5055870;28;20198;-69
2023/03/03 10:48:22;;;;;;;40.78;23.20;;;7.00;84.10;;;;;;5023327;28;20230;-69
2023/03/03 10:50:54;;;;;;;42.42;26.40;;;7.10;83.70;;;;;;5055294;28;20587;-69
2023/03/03 10:53:31;;;;;;;38.33;24.23;;;7.10;83.90;;;;;;5053605;28;20273;-69
2023/03/03 10:56:15;;;;;;;44.42;28.90;;;7.20;83.70;;;;;;5055459;28;20181;-69
2023/03/03 10:59:03;;;;;;;44.15;24.30;;;7.20;83.30;;;;;;5051304;28;20230;-69
2023/03/03 11:01:45;;;;;;;45.88;26.30;;;7.30;83.00;;;;;;5050829;28;20226;-69
2023/03/03 11:04:38;;;;;;;44.63;29.42;;;7.30;82.80;;;;;;5052411;28;20190;-69
2023/03/03 11:07:12;;;;;;;48.20;27.67;;;7.40;82.80;;;;;;5048876;28;20618;-69
2023/03/03 11:10:04;;;;;;;46.58;26.10;;;7.40;82.20;;;;;;5052702;28;20259;-69
2023/03/03 11:12:46;;;;;;;42.63;24.80;;;7.40;81.40;;;;;;5049864;28;20183;-68
2023/03/03 11:15:30;;;;;;;40.72;23.80;;;7.40;81.10;;;;;;5049905;28;20187;-69
2023/03/03 11:18:21;;;;;;;46.42;27.00;;;7.40;81.20;;;;;;5052110;28;20628;-69
2023/03/03 11:20:56;;;;;;;44.28;26.30;;;7.50;81.30;;;;;;5052887;28;20273;-69
2023/03/03 11:24:04;;;;;;;42.97;26.10;;;7.60;80.60;;;;;;5052118;28;20248;-69
2023/03/03 11:26:46;;;;;;;44.00;25.90;;;7.70;79.40;;;;;;5044210;28;20187;-69
2023/03/03 11:29:35;;;;;;;41.10;25.73;;;7.70;79.30;;;;;;5050420;28;20225;-69
2023/03/03 11:32:18;;;;;;;42.22;24.17;;;7.80;78.70;;;;;;5054327;28;20191;-69
2023/03/03 11:34:57;;;;;;;42.58;24.77;;;7.80;78.40;;;;;;5048831;28;20602;-69
2023/03/03 11:37:29;;;;;;;37.42;24.02;;;7.90;77.80;;;;;;5054059;28;20304;-69
2023/03/03 11:40:02;;;;;;;47.13;26.73;;;8.00;78.00;;;;;;5052618;28;20518;-69
2023/03/03 11:42:40;;;;;;;43.05;26.35;;;8.00;77.30;;;;;;5055938;28;20253;-69
2023/03/03 11:45:18;;;;;;;44.75;24.90;;;8.10;76.40;;;;;;5047216;28;20289;-69
2023/03/03 11:47:55;;;;;;;42.83;27.00;;;8.10;75.70;;;;;;5052534;28;20202;-68
2023/03/03 11:50:26;;;;;;;38.30;24.45;;;8.10;75.60;;;;;;5048991;28;20196;-69
2023/03/03 11:53:00;;;;;;;40.88;25.15;;;8.20;75.20;;;;;;5052731;28;20269;-69
2023/03/03 11:55:32;;;;;;;46.50;26.20;;;8.20;75.40;;;;;;5052023;28;20193;-69
2023/03/03 11:58:12;;;;;;;41.92;26.60;;;8.20;74.70;;;;;;5050971;28;20297;-71
2023/03/03 12:00:43;;;;;;;48.67;27.25;;;8.10;73.30;;;;;;5053630;28;20182;-69
2023/03/03 12:03:34;;;;;;;45.53;25.75;;;8.10;74.30;;;;;;5052188;28;20580;-69
2023/03/03 12:06:12;;;;;;;41.80;26.02;;;8.00;74.20;;;;;;5052416;28;20194;-69
2023/03/03 12:09:03;;;;;;;43.28;24.73;;;8.10;74.20;;;;;;5051474;28;20197;-71
2023/03/03 12:11:40;;;;;;;46.78;27.65;;;8.10;75.30;;;;;;5048924;28;20191;-72
2023/03/03 12:14:15;;;;;;;44.88;25.63;;;8.00;74.30;;;;;;5048553;28;20204;-69
2023/03/03 12:16:53;;;;;;;45.35;26.50;;;8.00;73.40;;;;;;5050824;28;20186;-70
2023/03/03 12:19:33;;;;;;;42.28;28.13;;;8.10;73.70;;;;;;5046536;28;20348;-69
2023/03/03 12:22:37;;;;;;;48.45;27.77;;;8.00;74.10;;;;;;5051789;28;20662;-70
2023/03/03 12:25:22;;;;;;;51.40;29.15;;;8.00;74.60;;;;;;5047316;28;20190;-69
2023/03/03 12:27:54;;;;;;;45.63;26.60;;;8.10;74.50;;;;;;5051548;28;20277;-69
2023/03/03 12:30:37;;;;;;;46.42;28.90;;;8.10;74.70;;;;;;5051188;28;20277;-70
2023/03/03 12:33:17;;;;;;;47.85;26.60;;;8.10;73.30;;;;;;5047834;28;20232;-69
2023/03/03 12:35:54;;;;;;;50.53;29.38;;;8.10;72.90;;;;;;5051294;28;20195;-70
2023/03/03 12:38:34;;;;;;;44.85;26.52;;;8.10;72.90;;;;;;5047925;28;20237;-70
2023/03/03 12:41:07;;;;;;;42.63;26.48;;;8.10;72.20;;;;;;5053482;28;20196;-69
2023/03/03 12:43:51;;;;;;;47.28;28.63;;;8.20;72.60;;;;;;5049792;28;20218;-69
2023/03/03 12:46:29;;;;;;;40.10;26.50;;;8.30;73.10;;;;;;5050017;28;20248;-71
2023/03/03 12:48:56;;;;;;;44.22;25.45;;;8.40;73.10;;;;;;5052448;28;20670;-70
2023/03/03 12:51:35;;;;;;;49.67;29.77;;;8.50;72.80;;;;;;5051160;28;20277;-69
2023/03/03 12:54:21;;;;;;;46.40;30.08;;;8.60;73.10;;;;;;5049493;28;20198;-71
2023/03/03 12:56:53;;;;;;;51.35;29.70;;;8.70;72.20;;;;;;5050594;28;20195;-69
2023/03/03 12:59:27;;;;;;;48.53;28.90;;;8.80;72.10;;;;;;5050545;28;20680;-70
2023/03/03 13:02:23;;;;;;;47.95;29.15;;;8.90;71.90;;;;;;5044401;28;20214;-69
2023/03/03 13:04:56;;;;;;;46.25;27.85;;;9.00;71.10;;;;;;5046912;28;20209;-69